KLFT/LFT METAR and TAF weather

Enter ICAO airport designator
Station Type Date Time Source
KLFT METAR 2019/10/18 10:53 UTC NOAA

KLFT 181053Z 05004KT 10SM CLR 15/12 A2987 RMK AO2 SLP114 T01500117


Station Type Date Time Source
KLFT Decoded METAR 2019/10/18 10:53 UTC NOAA

LAFAYETTE REGIONAL AIRPORT, LA, United States (KLFT) 30-12N 092-00W 11M
Oct 18, 2019 - 06:53 AM EDT / 2019.10.18 1053 UTC
Wind: from the NE (050 degrees) at 5 MPH (4 KT):0
Visibility: 10 mile(s):0
Sky conditions: clear
Temperature: 59.0 F (15.0 C)
Dew Point: 53.1 F (11.7 C)
Relative Humidity: 80%
Pressure (altimeter): 29.87 in. Hg (1011 hPa)
ob: KLFT 181053Z 05004KT 10SM CLR 15/12 A2987 RMK AO2 SLP114 T01500117
cycle: 11

Station Type Date Time Source
KLFT TAF 2019/10/18 06:24 UTC NOAA

TAF KLFT 180522Z 1806/1906 03005KT P6SM SCT040 BKN050 OVC200
FM181400 VRB05KT P6SM SCT100 OVC200
FM190000 VRB03KT P6SM FEW120 BKN200

Example: see airport list